Time;durP1;ratioP1;P1;durP2;ratioP2;P2;SDS_P1;SDS_P2;PMS_P1;PMS_P2;Temp;Humidity;BMP_temperature;BMP_pressure;BME280_temperature;BME280_humidity;BME280_pressure;Samples;Min_cycle;Max_cycle;Signal;HPM_P1;HPM_P2
2022/05/03 00:00:08;;;;;;;14.68;10.18;;;;;;;;;;6296468;28;20068;-82
2022/05/03 00:03:22;;;;;;;15.88;11.30;;;;;;;;;;6297077;28;20074;-82
2022/05/03 00:06:30;;;;;;;;;;;;;;;;;;6298648;28;20048;-81
2022/05/03 00:09:37;;;;;;;21.70;15.27;;;;;;;;;;6296480;28;20015;-82
2022/05/03 00:13:02;;;;;;;20.98;15.80;;;;;;;;;;6317892;28;20051;-82
2022/05/03 00:16:05;;;;;;;11.00;8.82;;;;;;;;;;6317309;28;20044;-82
2022/05/03 00:19:07;;;;;;;16.05;9.30;;;;;;;;;;6312576;28;20059;-80
2022/05/03 00:22:12;;;;;;;11.57;9.02;;;;;;;;;;6310421;28;20139;-81
2022/05/03 00:25:14;;;;;;;13.48;10.38;;;;;;;;;;6297198;28;20125;-79
2022/05/03 00:28:18;;;;;;;17.00;12.10;;;;;;;;;;6308808;28;20105;-81
2022/05/03 00:31:20;;;;;;;15.95;12.55;;;;;;;;;;6316965;28;20048;-81
2022/05/03 00:34:22;;;;;;;16.15;11.45;;;;;;;;;;6311000;28;20040;-80
2022/05/03 00:37:23;;;;;;;15.93;11.30;;;;;;;;;;6296245;28;20048;-81
2022/05/03 00:40:26;;;;;;;12.25;10.65;;;;;;;;;;6309600;28;20138;-80
2022/05/03 00:43:38;;;;;;;16.23;11.50;;;;;;;;;;6294835;28;20102;-80
2022/05/03 00:46:40;;;;;;;17.77;12.65;;;;;;;;;;6310396;28;20133;-81
2022/05/03 00:49:49;;;;;;;16.73;12.05;;;;;;;;;;6297016;28;20044;-81
2022/05/03 00:53:05;;;;;;;16.40;11.20;;;;;;;;;;6296028;28;20044;-81
2022/05/03 00:56:19;;;;;;;15.77;11.55;;;;;;;;;;6294713;28;20254;-81
2022/05/03 00:59:39;;;;;;;;;;;;;;;;;;6295612;28;20086;-80
2022/05/03 01:02:59;;;;;;;16.40;11.27;;;;;;;;;;6307886;28;19981;-80
2022/05/03 01:06:25;;;;;;;16.77;11.48;;;;;;;;;;6321992;28;20093;-80
2022/05/03 01:09:38;;;;;;;19.23;12.00;;;;;;;;;;6318403;28;20587;-80
2022/05/03 01:13:29;;;;;;;13.57;9.98;;;;;;;;;;6321647;28;20044;-80
2022/05/03 01:16:43;;;;;;;12.98;9.57;;;;;;;;;;6316008;28;20079;-82
2022/05/03 01:20:04;;;;;;;12.68;9.45;;;;;;;;;;6294522;28;20550;-82
2022/05/03 01:23:08;;;;;;;12.02;9.70;;;;;;;;;;6300001;28;20052;-80
2022/05/03 01:26:28;;;;;;;12.45;10.00;;;;;;;;;;6323399;28;20048;-80
2022/05/03 01:29:31;;;;;;;19.48;11.50;;;;;;;;;;6322270;28;20515;-80
2022/05/03 01:32:33;;;;;;;15.82;10.40;;;;;;;;;;6310173;28;20066;-81
2022/05/03 01:35:39;;;;;;;;;;;;;;;;;;6293321;28;20086;-80
2022/05/03 01:38:59;;;;;;;15.82;11.60;;;;;;;;;;6288789;28;19921;-82
2022/05/03 01:42:10;;;;;;;13.70;9.95;;;;;;;;;;6316481;28;20044;-80
2022/05/03 01:45:15;;;;;;;16.38;11.57;;;;;;;;;;6332316;28;20036;-80
2022/05/03 01:52:19;;;;;;;15.98;11.50;;;;;;;;;;6267036;28;20052;-81
2022/05/03 01:55:30;;;;;;;16.52;11.65;;;;;;;;;;6283536;28;20145;-81
2022/05/03 01:59:03;;;;;;;13.93;10.23;;;;;;;;;;6317972;28;20505;-81
2022/05/03 02:02:26;;;;;;;12.82;9.68;;;;;;;;;;6307736;28;20486;-81
2022/05/03 02:05:50;;;;;;;12.02;9.50;;;;;;;;;;6277273;28;20104;-80
2022/05/03 02:09:03;;;;;;;13.98;10.07;;;;;;;;;;6300822;28;20047;-80
2022/05/03 02:12:11;;;;;;;13.38;9.95;;;;;;;;;;6290789;28;20110;-81
2022/05/03 02:15:22;;;;;;;12.98;10.05;;;;;;;;;;6292738;28;20171;-81
2022/05/03 02:18:47;;;;;;;13.13;9.95;;;;;;;;;;6293042;28;20093;-81
2022/05/03 02:22:02;;;;;;;14.77;10.02;;;;;;;;;;6291886;28;20494;-82
2022/05/03 02:25:13;;;;;;;16.08;10.90;;;;;;;;;;6296620;28;20048;-80
2022/05/03 02:28:14;;;;;;;16.83;11.88;;;;;;;;;;6319126;28;20044;-81
2022/05/03 02:31:30;;;;;;;16.90;11.52;;;;;;;;;;6315481;28;20506;-82
2022/05/03 02:34:42;;;;;;;16.08;11.90;;;;;;;;;;6293489;28;20052;-80
2022/05/03 02:37:49;;;;;;;12.70;10.67;;;;;;;;;;6290863;28;20044;-80
2022/05/03 02:40:52;;;;;;;15.80;10.60;;;;;;;;;;6293578;28;20064;-81
2022/05/03 02:43:55;;;;;;;;;;;;;;;;;;6292427;28;20055;-81
2022/05/03 02:47:13;;;;;;;13.93;9.93;;;;;;;;;;6295199;28;19920;-81
2022/05/03 02:50:19;;;;;;;15.05;10.05;;;;;;;;;;6293264;28;20148;-81
2022/05/03 02:53:27;;;;;;;15.70;10.75;;;;;;;;;;6293630;28;20064;-81
2022/05/03 02:56:45;;;;;;;13.70;10.98;;;;;;;;;;6284246;28;20064;-81
2022/05/03 03:03:47;;;;;;;15.50;11.65;;;;;;;;;;6295814;28;20048;-80
2022/05/03 03:06:53;;;;;;;15.60;11.23;;;;;;;;;;6296097;28;20418;-81
2022/05/03 03:10:03;;;;;;;16.35;12.05;;;;;;;;;;6297038;28;20110;-80
2022/05/03 03:13:28;;;;;;;14.68;10.18;;;;;;;;;;6311560;28;20067;-80
2022/05/03 03:16:34;;;;;;;12.52;9.23;;;;;;;;;;6310471;28;20043;-80
2022/05/03 03:19:59;;;;;;;12.07;9.88;;;;;;;;;;6286459;28;20045;-80
2022/05/03 03:23:02;;;;;;;13.23;9.30;;;;;;;;;;6292911;28;20045;-81
2022/05/03 03:26:04;;;;;;;13.57;10.18;;;;;;;;;;6293101;28;20508;-80
2022/05/03 03:29:07;;;;;;;14.10;11.03;;;;;;;;;;6293328;28;20083;-79
2022/05/03 03:32:09;;;;;;;13.73;10.05;;;;;;;;;;6301872;28;20181;-80
2022/05/03 03:35:14;;;;;;;14.25;10.85;;;;;;;;;;6320830;28;20039;-81
2022/05/03 03:38:16;;;;;;;12.80;10.25;;;;;;;;;;6301948;28;20040;-80
2022/05/03 03:41:18;;;;;;;15.52;10.68;;;;;;;;;;6319061;28;20044;-80
2022/05/03 03:44:20;;;;;;;14.98;10.57;;;;;;;;;;6322769;28;20051;-82
2022/05/03 03:47:23;;;;;;;15.13;10.95;;;;;;;;;;6298720;28;20121;-80
2022/05/03 03:50:26;;;;;;;15.47;11.37;;;;;;;;;;6275404;28;20044;-82
2022/05/03 03:53:30;;;;;;;14.88;12.15;;;;;;;;;;6296375;28;20048;-81
2022/05/03 03:56:33;;;;;;;14.05;10.23;;;;;;;;;;6317484;28;20044;-81
2022/05/03 03:59:36;;;;;;;12.38;9.63;;;;;;;;;;6323287;28;20048;-80
2022/05/03 04:02:41;;;;;;;14.27;9.75;;;;;;;;;;6305477;28;20045;-80
2022/05/03 04:05:44;;;;;;;11.88;10.30;;;;;;;;;;6300657;28;20040;-82
2022/05/03 04:08:53;;;;;;;13.98;10.40;;;;;;;;;;6291842;28;20128;-81
2022/05/03 04:11:55;;;;;;;14.95;10.95;;;;;;;;;;6293290;28;20155;-80
2022/05/03 04:14:57;;;;;;;15.93;11.27;;;;;;;;;;6296583;28;20044;-82
2022/05/03 04:17:59;;;;;;;13.40;10.98;;;;;;;;;;6303808;28;20075;-81
2022/05/03 04:21:01;;;;;;;16.93;11.57;;;;;;;;;;6292697;28;20057;-80
2022/05/03 04:24:03;;;;;;;15.15;11.07;;;;;;;;;;6292129;28;20052;-81
2022/05/03 04:27:05;;;;;;;15.13;10.70;;;;;;;;;;6292428;28;20044;-82
2022/05/03 04:30:07;;;;;;;14.82;11.45;;;;;;;;;;6292254;28;20053;-81
2022/05/03 04:33:09;;;;;;;12.95;10.70;;;;;;;;;;6291921;28;20044;-80
2022/05/03 04:36:10;;;;;;;14.68;12.15;;;;;;;;;;6292987;28;20242;-81
2022/05/03 04:39:12;;;;;;;15.55;12.40;;;;;;;;;;6292400;28;20189;-82
2022/05/03 04:42:14;;;;;;;16.50;12.18;;;;;;;;;;6273336;28;20055;-82
2022/05/03 04:45:15;;;;;;;15.93;11.50;;;;;;;;;;6294020;28;20052;-80
2022/05/03 04:48:17;;;;;;;16.75;12.10;;;;;;;;;;6314384;28;20051;-79
2022/05/03 04:51:21;;;;;;;16.48;10.93;;;;;;;;;;6295071;28;20040;-81
2022/05/03 04:54:24;;;;;;;16.35;11.10;;;;;;;;;;6294772;28;20424;-81
2022/05/03 04:57:25;;;;;;;15.45;10.82;;;;;;;;;;6285177;28;20052;-81
2022/05/03 05:00:27;;;;;;;14.55;11.15;;;;;;;;;;6268029;28;20045;-81
2022/05/03 05:03:29;;;;;;;14.98;10.55;;;;;;;;;;6290665;28;20477;-82
2022/05/03 05:06:31;;;;;;;15.88;11.35;;;;;;;;;;6295876;28;20102;-81
2022/05/03 05:09:33;;;;;;;16.35;10.98;;;;;;;;;;6311025;28;20049;-81
2022/05/03 05:12:35;;;;;;;14.93;11.18;;;;;;;;;;6293595;28;20036;-81
2022/05/03 05:15:37;;;;;;;12.90;10.13;;;;;;;;;;6296233;28;20049;-81
2022/05/03 05:18:38;;;;;;;12.68;9.45;;;;;;;;;;6297099;28;20778;-82
2022/05/03 05:21:40;;;;;;;11.60;9.40;;;;;;;;;;6293063;28;20040;-81
2022/05/03 05:24:42;;;;;;;14.52;10.85;;;;;;;;;;6295883;28;20056;-82
2022/05/03 05:27:44;;;;;;;15.30;10.10;;;;;;;;;;6315024;28;20048;-81
2022/05/03 05:30:47;;;;;;;14.13;10.32;;;;;;;;;;6319226;28;20143;-82
2022/05/03 05:33:48;;;;;;;14.27;10.57;;;;;;;;;;6319245;28;20081;-80
2022/05/03 05:36:50;;;;;;;16.58;11.13;;;;;;;;;;6321550;28;20040;-82
2022/05/03 05:39:52;;;;;;;16.33;11.20;;;;;;;;;;6315357;28;20063;-82
2022/05/03 05:42:55;;;;;;;14.10;11.13;;;;;;;;;;6293261;28;20102;-82
2022/05/03 05:45:58;;;;;;;14.98;10.38;;;;;;;;;;6292420;28;20041;-82
2022/05/03 05:48:59;;;;;;;15.30;11.20;;;;;;;;;;6314918;28;20067;-84
2022/05/03 05:55:21;;;;;;;16.25;10.98;;;;;;;;;;6281143;28;20649;-84
2022/05/03 05:58:23;;;;;;;16.00;10.02;;;;;;;;;;6292435;28;20043;-85
2022/05/03 06:01:38;;;;;;;12.77;9.90;;;;;;;;;;6294240;28;20052;-81
2022/05/03 06:04:41;;;;;;;13.80;8.95;;;;;;;;;;6296127;28;20059;-82
2022/05/03 06:07:42;;;;;;;11.50;9.27;;;;;;;;;;6296940;28;20051;-80
2022/05/03 06:10:45;;;;;;;14.93;10.35;;;;;;;;;;6306786;28;20055;-81
2022/05/03 06:13:47;;;;;;;13.05;10.50;;;;;;;;;;6321789;28;20040;-81
2022/05/03 06:16:55;;;;;;;15.32;10.20;;;;;;;;;;6313236;28;20445;-82
2022/05/03 06:19:56;;;;;;;13.07;10.15;;;;;;;;;;6295265;28;20729;-82
2022/05/03 06:22:58;;;;;;;13.13;9.43;;;;;;;;;;6294227;28;20048;-82
2022/05/03 06:26:00;;;;;;;16.42;9.52;;;;;;;;;;6307779;28;20048;-81
2022/05/03 06:29:03;;;;;;;12.57;9.00;;;;;;;;;;6319824;28;20040;-81
2022/05/03 06:32:05;;;;;;;12.25;9.52;;;;;;;;;;6315191;28;20494;-81
2022/05/03 06:35:07;;;;;;;18.02;10.45;;;;;;;;;;6297319;28;20051;-82
2022/05/03 06:38:09;;;;;;;10.90;9.05;;;;;;;;;;6298409;28;20059;-82
2022/05/03 06:41:12;;;;;;;9.63;8.38;;;;;;;;;;6299136;28;20512;-83
2022/05/03 06:44:14;;;;;;;15.20;9.30;;;;;;;;;;6323587;28;20143;-82
2022/05/03 06:47:16;;;;;;;14.50;10.00;;;;;;;;;;6295626;28;20048;-81
2022/05/03 06:50:17;;;;;;;10.60;7.90;;;;;;;;;;6294727;28;20051;-81
2022/05/03 06:53:19;;;;;;;12.98;10.32;;;;;;;;;;6297322;28;20245;-81
2022/05/03 06:56:21;;;;;;;12.93;8.57;;;;;;;;;;6303446;28;20042;-79
2022/05/03 06:59:22;;;;;;;10.45;8.57;;;;;;;;;;6297374;28;20049;-82
2022/05/03 07:02:24;;;;;;;11.10;8.50;;;;;;;;;;6298845;28;20044;-82
2022/05/03 07:05:26;;;;;;;10.93;8.65;;;;;;;;;;6255644;28;20168;-83
2022/05/03 07:08:28;;;;;;;9.65;8.20;;;;;;;;;;6272480;28;20056;-81
2022/05/03 07:11:30;;;;;;;12.93;8.03;;;;;;;;;;6290492;28;20048;-80
2022/05/03 07:14:32;;;;;;;11.30;7.97;;;;;;;;;;6293539;28;20048;-80
2022/05/03 07:24:14;;;;;;;11.27;8.02;;;;;;;;;;6292642;28;20073;-82
2022/05/03 07:27:16;;;;;;;10.55;7.78;;;;;;;;;;6300708;28;20044;-81
2022/05/03 07:30:18;;;;;;;11.15;7.70;;;;;;;;;;6317093;28;20055;-85
2022/05/03 07:33:20;;;;;;;11.23;8.15;;;;;;;;;;6337651;28;20035;-85
2022/05/03 07:36:22;;;;;;;10.13;7.78;;;;;;;;;;6342471;28;20044;-82
2022/05/03 07:39:24;;;;;;;12.60;7.32;;;;;;;;;;6337812;28;20036;-84
2022/05/03 07:42:26;;;;;;;10.23;7.15;;;;;;;;;;6298252;28;20091;-81
2022/05/03 07:45:27;;;;;;;9.48;7.03;;;;;;;;;;6301038;28;20229;-81
2022/05/03 07:48:36;;;;;;;10.45;7.05;;;;;;;;;;6301940;28;20509;-85
2022/05/03 07:51:41;;;;;;;9.93;7.05;;;;;;;;;;6320438;28;20047;-84
2022/05/03 07:54:44;;;;;;;9.77;6.80;;;;;;;;;;6297274;28;20049;-84
2022/05/03 07:57:45;;;;;;;11.45;7.50;;;;;;;;;;6296981;28;20048;-83
2022/05/03 08:00:48;;;;;;;10.95;6.72;;;;;;;;;;6296100;28;20286;-84
2022/05/03 08:03:50;;;;;;;9.27;7.05;;;;;;;;;;6310936;28;20044;-84
2022/05/03 08:06:52;;;;;;;10.23;7.50;;;;;;;;;;6295732;28;20045;-83
2022/05/03 08:09:54;;;;;;;10.45;7.18;;;;;;;;;;6311735;28;20051;-82
2022/05/03 08:12:56;;;;;;;8.85;6.95;;;;;;;;;;6297529;28;20051;-82
2022/05/03 08:15:58;;;;;;;10.77;6.60;;;;;;;;;;6295494;28;20045;-84
2022/05/03 08:19:00;;;;;;;7.97;6.57;;;;;;;;;;6316111;28;20044;-82
2022/05/03 08:22:02;;;;;;;8.38;6.88;;;;;;;;;;6295286;28;20048;-80
2022/05/03 08:25:04;;;;;;;10.90;7.72;;;;;;;;;;6295355;28;20045;-82
2022/05/03 08:28:06;;;;;;;9.18;6.88;;;;;;;;;;6296999;28;20049;-82
2022/05/03 08:31:08;;;;;;;9.60;6.85;;;;;;;;;;6294975;28;20043;-83
2022/05/03 08:34:11;;;;;;;7.82;6.32;;;;;;;;;;6294612;28;20123;-82
2022/05/03 08:43:54;;;;;;;9.15;7.13;;;;;;;;;;6309739;28;20060;-82
2022/05/03 08:46:58;;;;;;;8.17;6.97;;;;;;;;;;6293741;28;20665;-83
2022/05/03 08:50:04;;;;;;;9.40;6.90;;;;;;;;;;6319121;28;20047;-83
2022/05/03 08:53:06;;;;;;;8.25;6.85;;;;;;;;;;6312305;28;20032;-84
2022/05/03 08:56:07;;;;;;;10.57;7.40;;;;;;;;;;6303874;28;20036;-84
2022/05/03 08:59:09;;;;;;;9.20;7.15;;;;;;;;;;6322621;28;20048;-83
2022/05/03 09:02:11;;;;;;;10.33;8.20;;;;;;;;;;6320850;28;20043;-83
2022/05/03 09:05:15;;;;;;;10.23;7.27;;;;;;;;;;6323273;28;20056;-82
2022/05/03 09:08:24;;;;;;;10.70;7.78;;;;;;;;;;6322453;28;20489;-84
2022/05/03 09:11:25;;;;;;;15.80;9.70;;;;;;;;;;6302451;28;20413;-83
2022/05/03 09:14:42;;;;;;;11.77;8.30;;;;;;;;;;6322635;28;20047;-84
2022/05/03 09:17:45;;;;;;;9.90;8.07;;;;;;;;;;6308271;28;20040;-83
2022/05/03 09:24:09;;;;;;;9.48;7.80;;;;;;;;;;6297118;28;20048;-84
2022/05/03 09:27:18;;;;;;;10.93;8.10;;;;;;;;;;6297009;28;20055;-84
2022/05/03 09:30:20;;;;;;;10.73;7.13;;;;;;;;;;6295199;28;20078;-81
2022/05/03 09:33:23;;;;;;;11.13;7.18;;;;;;;;;;6296068;28;20041;-81
2022/05/03 09:36:26;;;;;;;9.43;7.47;;;;;;;;;;6295310;28;20094;-81
2022/05/03 09:39:48;;;;;;;10.07;7.97;;;;;;;;;;6318964;28;20044;-81
2022/05/03 09:42:54;;;;;;;10.27;7.78;;;;;;;;;;6343450;28;20126;-81
2022/05/03 09:46:04;;;;;;;9.80;7.00;;;;;;;;;;6340979;28;20073;-81
2022/05/03 09:49:06;;;;;;;9.82;7.70;;;;;;;;;;6321338;28;20040;-81
2022/05/03 09:52:21;;;;;;;7.78;6.85;;;;;;;;;;6319886;28;20040;-81
2022/05/03 09:55:32;;;;;;;9.73;7.43;;;;;;;;;;6270905;28;20045;-81
2022/05/03 09:58:33;;;;;;;11.40;7.60;;;;;;;;;;6294502;28;20386;-82
2022/05/03 10:01:35;;;;;;;8.85;7.05;;;;;;;;;;6293367;28;20857;-81
2022/05/03 10:04:38;;;;;;;8.73;7.30;;;;;;;;;;6293824;28;20048;-81
2022/05/03 10:07:43;;;;;;;9.60;7.40;;;;;;;;;;6294050;28;20040;-83
2022/05/03 10:10:56;;;;;;;10.23;7.40;;;;;;;;;;6295100;28;20466;-83
2022/05/03 10:13:58;;;;;;;8.57;7.07;;;;;;;;;;6320061;28;20052;-83
2022/05/03 10:20:40;;;;;;;12.05;8.18;;;;;;;;;;6310564;28;21181;-82
2022/05/03 10:24:08;;;;;;;11.57;7.97;;;;;;;;;;6294392;28;20040;-82
2022/05/03 10:27:10;;;;;;;9.30;7.45;;;;;;;;;;6293133;28;20369;-82
2022/05/03 10:30:20;;;;;;;11.57;7.93;;;;;;;;;;6294066;28;20529;-82
2022/05/03 10:33:23;;;;;;;13.35;7.95;;;;;;;;;;6293848;28;21427;-82
2022/05/03 10:36:35;;;;;;;10.90;8.20;;;;;;;;;;6292952;28;20037;-82
2022/05/03 10:39:57;;;;;;;9.23;7.60;;;;;;;;;;6294490;28;20044;-83
2022/05/03 10:43:05;;;;;;;12.53;8.17;;;;;;;;;;6296260;28;20041;-82
2022/05/03 10:46:14;;;;;;;11.13;7.65;;;;;;;;;;6291319;28;20868;-83
2022/05/03 10:49:20;;;;;;;10.32;7.93;;;;;;;;;;6292787;28;20100;-83
2022/05/03 10:52:21;;;;;;;11.07;8.13;;;;;;;;;;6286671;28;20066;-82
2022/05/03 10:55:25;;;;;;;9.52;7.68;;;;;;;;;;6292798;28;20052;-84
2022/05/03 10:58:28;;;;;;;13.15;8.27;;;;;;;;;;6314370;28;20812;-83
2022/05/03 11:01:30;;;;;;;9.93;7.80;;;;;;;;;;6312127;28;20040;-82
2022/05/03 11:04:35;;;;;;;11.03;7.70;;;;;;;;;;6293230;28;20041;-81
2022/05/03 11:07:37;;;;;;;13.60;7.55;;;;;;;;;;6292775;28;20056;-82
2022/05/03 11:10:46;;;;;;;8.40;7.30;;;;;;;;;;6302741;28;20047;-82
2022/05/03 11:13:49;;;;;;;10.65;7.60;;;;;;;;;;6318388;28;20093;-82
2022/05/03 11:17:12;;;;;;;10.63;7.68;;;;;;;;;;6317899;28;20036;-81
2022/05/03 11:20:20;;;;;;;11.45;7.78;;;;;;;;;;6310834;28;20178;-82
2022/05/03 11:23:22;;;;;;;8.18;7.38;;;;;;;;;;6348460;28;20617;-83
2022/05/03 11:26:25;;;;;;;9.30;7.38;;;;;;;;;;6323110;28;20401;-83
2022/05/03 11:29:29;;;;;;;11.20;7.82;;;;;;;;;;6322618;28;20052;-80
2022/05/03 11:32:40;;;;;;;10.60;7.15;;;;;;;;;;6308391;28;20045;-82
2022/05/03 11:35:42;;;;;;;8.57;7.35;;;;;;;;;;6297586;28;20048;-83
2022/05/03 11:38:47;;;;;;;10.53;7.70;;;;;;;;;;6298483;28;20390;-82
2022/05/03 11:41:54;;;;;;;7.90;7.07;;;;;;;;;;6272532;28;20120;-83
2022/05/03 11:44:56;;;;;;;9.02;7.13;;;;;;;;;;6273451;28;20045;-83
2022/05/03 11:47:58;;;;;;;7.57;6.70;;;;;;;;;;6308834;28;20063;-83
2022/05/03 11:57:51;;;;;;;8.57;6.32;;;;;;;;;;6321781;28;20047;-83
2022/05/03 12:00:53;;;;;;;8.65;6.45;;;;;;;;;;6320400;28;20044;-83
2022/05/03 12:03:58;;;;;;;9.40;8.45;;;;;;;;;;6322280;28;20048;-83
2022/05/03 12:07:00;;;;;;;7.68;6.75;;;;;;;;;;6322817;28;20056;-83
2022/05/03 12:10:33;;;;;;;8.52;7.63;;;;;;;;;;6321511;28;20044;-83
2022/05/03 12:13:37;;;;;;;8.10;6.70;;;;;;;;;;6322312;28;20042;-83
2022/05/03 12:16:39;;;;;;;7.25;6.55;;;;;;;;;;6319932;28;20044;-83
2022/05/03 12:19:42;;;;;;;8.88;7.72;;;;;;;;;;6322412;28;20104;-83
2022/05/03 12:22:44;;;;;;;9.80;7.13;;;;;;;;;;6319560;28;20433;-83
2022/05/03 12:25:57;;;;;;;8.88;7.40;;;;;;;;;;6320682;28;20044;-83
2022/05/03 12:29:00;;;;;;;10.80;7.47;;;;;;;;;;6322047;28;20059;-83
2022/05/03 12:32:12;;;;;;;7.78;6.90;;;;;;;;;;6311999;28;20056;-84
2022/05/03 12:35:14;;;;;;;9.48;7.32;;;;;;;;;;6297704;28;20055;-82
2022/05/03 12:38:18;;;;;;;8.65;6.97;;;;;;;;;;6297005;28;20043;-83
2022/05/03 12:41:26;;;;;;;11.82;8.10;;;;;;;;;;6298082;28;20059;-82
2022/05/03 12:44:29;;;;;;;10.25;7.57;;;;;;;;;;6298752;28;20048;-83
2022/05/03 12:47:31;;;;;;;9.07;8.18;;;;;;;;;;6297121;28;20105;-82
2022/05/03 12:50:33;;;;;;;8.48;7.43;;;;;;;;;;6296485;28;20052;-81
2022/05/03 12:53:36;;;;;;;9.20;7.60;;;;;;;;;;6295581;28;20055;-82
2022/05/03 13:00:01;;;;;;;8.75;7.57;;;;;;;;;;6321776;28;20048;-82
2022/05/03 13:03:04;;;;;;;7.70;6.82;;;;;;;;;;6320600;28;20055;-81
2022/05/03 13:06:06;;;;;;;8.40;7.60;;;;;;;;;;6323014;28;20059;-82
2022/05/03 13:09:09;;;;;;;9.77;7.65;;;;;;;;;;6320318;28;20504;-82
2022/05/03 13:12:11;;;;;;;8.32;7.07;;;;;;;;;;6299704;28;20043;-82
2022/05/03 13:15:13;;;;;;;8.80;7.22;;;;;;;;;;6295170;28;20040;-82
2022/05/03 13:18:21;;;;;;;7.90;7.10;;;;;;;;;;6295141;28;20046;-83
2022/05/03 13:21:23;;;;;;;7.82;7.03;;;;;;;;;;6294177;28;20048;-81
2022/05/03 13:24:25;;;;;;;11.27;6.87;;;;;;;;;;6291361;28;20533;-81
2022/05/03 13:27:27;;;;;;;10.70;7.10;;;;;;;;;;6287512;28;20044;-80
2022/05/03 13:30:29;;;;;;;8.67;6.90;;;;;;;;;;6290211;28;20036;-80
2022/05/03 13:33:30;;;;;;;8.07;7.20;;;;;;;;;;6270254;28;20041;-81
2022/05/03 13:40:30;;;;;;;8.00;6.15;;;;;;;;;;6262974;28;20041;-83
2022/05/03 13:43:32;;;;;;;7.18;6.25;;;;;;;;;;6282377;28;20516;-81
2022/05/03 13:46:33;;;;;;;6.88;6.07;;;;;;;;;;6285761;28;20403;-82
2022/05/03 13:49:36;;;;;;;10.15;6.72;;;;;;;;;;6286373;28;20045;-83
2022/05/03 13:52:39;;;;;;;6.90;6.30;;;;;;;;;;6285479;28;20040;-84
2022/05/03 13:55:41;;;;;;;9.75;6.63;;;;;;;;;;6289400;28;20425;-84
2022/05/03 13:58:43;;;;;;;7.30;6.55;;;;;;;;;;6288310;28;20048;-83
2022/05/03 14:01:45;;;;;;;;;;;;;;;;;;6304332;28;20231;-84
2022/05/03 14:04:47;;;;;;;9.10;6.90;;;;;;;;;;6290247;28;19924;-82
2022/05/03 14:07:49;;;;;;;9.13;7.00;;;;;;;;;;6289053;28;20074;-82
2022/05/03 14:10:50;;;;;;;7.07;6.38;;;;;;;;;;6286645;28;20044;-81
2022/05/03 14:13:52;;;;;;;7.00;6.30;;;;;;;;;;6271199;28;20052;-81
2022/05/03 14:16:54;;;;;;;7.40;6.60;;;;;;;;;;6290425;28;20052;-83
2022/05/03 14:19:55;;;;;;;9.57;6.60;;;;;;;;;;6300093;28;20044;-81
2022/05/03 14:22:57;;;;;;;10.70;7.30;;;;;;;;;;6282431;28;20127;-82
2022/05/03 14:25:59;;;;;;;7.97;6.57;;;;;;;;;;6289071;28;20037;-81
2022/05/03 14:29:01;;;;;;;7.97;6.90;;;;;;;;;;6307515;28;20045;-82
2022/05/03 14:32:04;;;;;;;7.90;6.83;;;;;;;;;;6291036;28;20493;-82
2022/05/03 14:35:07;;;;;;;7.43;6.10;;;;;;;;;;6295463;28;20442;-81
2022/05/03 14:38:09;;;;;;;;;;;;;;;;;;6293134;28;20139;-82
2022/05/03 14:41:10;;;;;;;9.38;7.22;;;;;;;;;;6325000;28;19992;-80
2022/05/03 14:44:12;;;;;;;7.90;6.85;;;;;;;;;;6319196;28;20577;-82
2022/05/03 14:47:13;;;;;;;8.05;6.68;;;;;;;;;;6308409;28;20118;-83
2022/05/03 14:50:15;;;;;;;9.82;6.82;;;;;;;;;;6293490;28;20098;-82
2022/05/03 14:53:18;;;;;;;7.18;6.47;;;;;;;;;;6298218;28;20048;-80
2022/05/03 15:03:02;;;;;;;7.72;6.30;;;;;;;;;;6311828;28;20097;-78
2022/05/03 15:06:05;;;;;;;9.20;6.32;;;;;;;;;;6325152;28;20027;-81
2022/05/03 15:09:10;;;;;;;7.70;6.43;;;;;;;;;;6319561;28;20136;-80
2022/05/03 15:12:12;;;;;;;8.15;6.78;;;;;;;;;;6314163;28;20488;-80
2022/05/03 15:15:16;;;;;;;8.70;7.15;;;;;;;;;;6345016;28;20122;-77
2022/05/03 15:18:18;;;;;;;7.03;6.32;;;;;;;;;;6318495;28;20047;-82
2022/05/03 15:21:20;;;;;;;6.40;5.65;;;;;;;;;;6286914;28;20055;-83
2022/05/03 15:24:38;;;;;;;9.00;6.70;;;;;;;;;;6292994;28;20048;-80
2022/05/03 15:27:39;;;;;;;7.05;6.35;;;;;;;;;;6301249;28;20453;-79
2022/05/03 15:30:44;;;;;;;7.13;6.10;;;;;;;;;;6293108;28;20048;-81
2022/05/03 15:33:46;;;;;;;8.35;7.13;;;;;;;;;;6313872;28;20040;-81
2022/05/03 15:36:48;;;;;;;7.53;6.67;;;;;;;;;;6310593;28;20803;-80
2022/05/03 15:39:54;;;;;;;7.82;7.03;;;;;;;;;;6289475;28;20922;-80
2022/05/03 15:42:56;;;;;;;7.43;6.65;;;;;;;;;;6309910;28;20051;-80
2022/05/03 15:46:00;;;;;;;10.75;7.18;;;;;;;;;;6316748;28;20044;-81
2022/05/03 15:49:02;;;;;;;9.85;6.95;;;;;;;;;;6290386;28;20097;-82
2022/05/03 15:52:04;;;;;;;8.20;7.15;;;;;;;;;;6288690;28;20117;-80
2022/05/03 15:55:06;;;;;;;7.22;6.53;;;;;;;;;;6299136;28;20060;-82
2022/05/03 15:58:07;;;;;;;8.43;6.70;;;;;;;;;;6300066;28;20084;-82
2022/05/03 16:01:09;;;;;;;9.73;6.90;;;;;;;;;;6291478;28;20604;-80
2022/05/03 16:04:11;;;;;;;8.48;6.57;;;;;;;;;;6317914;28;20044;-81
2022/05/03 16:07:13;;;;;;;7.43;6.45;;;;;;;;;;6307116;28;20187;-82
2022/05/03 16:10:16;;;;;;;7.20;6.40;;;;;;;;;;6292205;28;20068;-81
2022/05/03 16:13:19;;;;;;;8.00;7.20;;;;;;;;;;6292531;28;20505;-80
2022/05/03 16:16:21;;;;;;;7.40;6.60;;;;;;;;;;6293011;28;20040;-82
2022/05/03 16:19:23;;;;;;;7.30;6.38;;;;;;;;;;6292711;28;20041;-82
2022/05/03 16:22:24;;;;;;;9.30;6.95;;;;;;;;;;6292794;28;20171;-81
2022/05/03 16:25:26;;;;;;;10.18;6.93;;;;;;;;;;6288127;28;20093;-79
2022/05/03 16:28:28;;;;;;;9.30;6.80;;;;;;;;;;6288851;28;20053;-82
2022/05/03 16:31:30;;;;;;;7.82;6.88;;;;;;;;;;6295012;28;20048;-81
2022/05/03 16:34:32;;;;;;;8.60;7.07;;;;;;;;;;6320523;28;20044;-80
2022/05/03 16:44:13;;;;;;;8.40;5.90;;;;;;;;;;6304701;28;20493;-81
2022/05/03 16:47:20;;;;;;;6.70;5.65;;;;;;;;;;6293532;28;20059;-79
2022/05/03 16:50:22;;;;;;;6.95;6.22;;;;;;;;;;6299934;28;20051;-80
2022/05/03 16:53:23;;;;;;;9.43;6.57;;;;;;;;;;6295637;28;20181;-80
2022/05/03 16:56:26;;;;;;;7.50;6.60;;;;;;;;;;6313722;28;20044;-79
2022/05/03 16:59:28;;;;;;;8.48;6.20;;;;;;;;;;6296082;28;20044;-81
2022/05/03 17:02:30;;;;;;;8.57;6.85;;;;;;;;;;6292117;28;20060;-80
2022/05/03 17:05:32;;;;;;;7.60;5.78;;;;;;;;;;6283817;28;20104;-79
2022/05/03 17:08:34;;;;;;;6.90;5.60;;;;;;;;;;6315004;28;20059;-83
2022/05/03 17:11:36;;;;;;;7.80;6.10;;;;;;;;;;6294823;28;20045;-82
2022/05/03 17:14:40;;;;;;;8.32;6.07;;;;;;;;;;6287653;28;20044;-81
2022/05/03 17:17:45;;;;;;;7.45;6.30;;;;;;;;;;6288457;28;20036;-81
2022/05/03 17:20:47;;;;;;;6.85;5.75;;;;;;;;;;6286297;28;20045;-81
2022/05/03 17:23:48;;;;;;;11.83;6.27;;;;;;;;;;6291733;28;20127;-82
2022/05/03 17:26:50;;;;;;;6.85;5.70;;;;;;;;;;6305409;28;20052;-81
2022/05/03 17:29:52;;;;;;;8.18;5.60;;;;;;;;;;6295704;28;20054;-82
2022/05/03 17:32:54;;;;;;;7.22;5.47;;;;;;;;;;6315239;28;20048;-80
2022/05/03 17:35:56;;;;;;;9.30;5.50;;;;;;;;;;6296167;28;20108;-80
2022/05/03 17:38:58;;;;;;;8.45;5.75;;;;;;;;;;6313966;28;20067;-81
2022/05/03 17:42:00;;;;;;;7.80;5.68;;;;;;;;;;6311854;28;20119;-81
2022/05/03 17:45:03;;;;;;;6.13;5.50;;;;;;;;;;6316485;28;20130;-81
2022/05/03 17:48:05;;;;;;;6.65;5.75;;;;;;;;;;6314888;28;20040;-81
2022/05/03 17:51:07;;;;;;;7.18;5.85;;;;;;;;;;6315643;28;20119;-82
2022/05/03 17:54:09;;;;;;;11.95;10.77;;;;;;;;;;6316584;28;20068;-81
2022/05/03 17:57:11;;;;;;;9.33;6.37;;;;;;;;;;6316302;28;20135;-83
2022/05/03 18:00:13;;;;;;;7.53;6.60;;;;;;;;;;6297514;28;20040;-83
2022/05/03 18:03:15;;;;;;;7.50;6.63;;;;;;;;;;6306426;28;20147;-81
2022/05/03 18:06:18;;;;;;;7.03;5.82;;;;;;;;;;6292243;28;20040;-82
2022/05/03 18:09:19;;;;;;;8.82;5.88;;;;;;;;;;6316887;28;20104;-82
2022/05/03 18:12:21;;;;;;;8.60;7.07;;;;;;;;;;6324131;28;20380;-81
2022/05/03 18:15:23;;;;;;;10.13;7.28;;;;;;;;;;6341376;28;20131;-80
2022/05/03 18:18:24;;;;;;;7.50;6.70;;;;;;;;;;6294741;28;20051;-81
2022/05/03 18:21:27;;;;;;;7.38;6.43;;;;;;;;;;6290102;28;20862;-82
2022/05/03 18:24:29;;;;;;;8.15;5.90;;;;;;;;;;6299876;28;20071;-81
2022/05/03 18:27:30;;;;;;;6.68;5.57;;;;;;;;;;6280800;28;20068;-81
2022/05/03 18:30:32;;;;;;;6.55;5.72;;;;;;;;;;6298486;28;20094;-83
2022/05/03 18:33:33;;;;;;;8.30;6.00;;;;;;;;;;6298538;28;20063;-83
2022/05/03 18:36:35;;;;;;;7.75;6.28;;;;;;;;;;6298074;28;20056;-82
2022/05/03 18:39:37;;;;;;;7.25;6.43;;;;;;;;;;6299993;28;20063;-84
2022/05/03 18:42:39;;;;;;;8.05;5.80;;;;;;;;;;6315746;28;20129;-83
2022/05/03 18:45:44;;;;;;;7.05;6.05;;;;;;;;;;6300246;28;20067;-82
2022/05/03 18:48:46;;;;;;;6.65;5.80;;;;;;;;;;6298779;28;20041;-83
2022/05/03 18:51:49;;;;;;;23.25;14.48;;;;;;;;;;6300649;28;20398;-82
2022/05/03 18:58:16;;;;;;;14.55;9.50;;;;;;;;;;6290381;28;20068;-82
2022/05/03 19:01:18;;;;;;;6.78;6.07;;;;;;;;;;6299214;28;20644;-83
2022/05/03 19:04:23;;;;;;;7.93;5.70;;;;;;;;;;6307108;28;20040;-83
2022/05/03 19:07:24;;;;;;;6.97;5.97;;;;;;;;;;6313888;28;20041;-82
2022/05/03 19:10:26;;;;;;;9.00;6.00;;;;;;;;;;6296806;28;20117;-83
2022/05/03 19:13:28;;;;;;;7.05;5.80;;;;;;;;;;6288040;28;20051;-82
2022/05/03 19:16:30;;;;;;;7.88;6.10;;;;;;;;;;6285600;28;20048;-81